sensor_id;sensor_type;location;lat;lon;timestamp;temperature;humidity
6307;DHT22;3186;54.062;9.962;2024-02-23T00:01:47;9.90;99.90
6307;DHT22;3186;54.062;9.962;2024-02-23T00:04:13;10.00;99.90
6307;DHT22;3186;54.062;9.962;2024-02-23T00:06:39;9.80;99.90
6307;DHT22;3186;54.062;9.962;2024-02-23T00:09:04;9.80;99.90
6307;DHT22;3186;54.062;9.962;2024-02-23T00:11:30;9.70;99.90
6307;DHT22;3186;54.062;9.962;2024-02-23T00:13:56;9.70;99.90
6307;DHT22;3186;54.062;9.962;2024-02-23T00:16:21;9.70;99.90
6307;DHT22;3186;54.062;9.962;2024-02-23T00:18:47;9.70;99.90
6307;DHT22;3186;54.062;9.962;2024-02-23T00:21:13;9.60;99.90
6307;DHT22;3186;54.062;9.962;2024-02-23T00:23:38;9.60;99.90
6307;DHT22;3186;54.062;9.962;2024-02-23T00:26:04;9.60;99.90
6307;DHT22;3186;54.062;9.962;2024-02-23T00:28:29;9.60;99.90
6307;DHT22;3186;54.062;9.962;2024-02-23T00:30:55;9.50;99.90
6307;DHT22;3186;54.062;9.962;2024-02-23T00:33:21;9.50;99.90
6307;DHT22;3186;54.062;9.962;2024-02-23T00:35:46;9.50;99.90
6307;DHT22;3186;54.062;9.962;2024-02-23T00:38:12;9.40;99.90
6307;DHT22;3186;54.062;9.962;2024-02-23T00:40:38;9.40;99.90
6307;DHT22;3186;54.062;9.962;2024-02-23T00:43:04;9.40;99.90
6307;DHT22;3186;54.062;9.962;2024-02-23T00:45:29;9.50;99.90
6307;DHT22;3186;54.062;9.962;2024-02-23T00:47:55;9.40;99.90
6307;DHT22;3186;54.062;9.962;2024-02-23T00:50:22;9.40;99.90
6307;DHT22;3186;54.062;9.962;2024-02-23T00:52:51;9.30;99.90
6307;DHT22;3186;54.062;9.962;2024-02-23T00:55:18;9.30;99.90
6307;DHT22;3186;54.062;9.962;2024-02-23T00:57:43;9.20;99.90
6307;DHT22;3186;54.062;9.962;2024-02-23T01:00:11;8.90;99.90
6307;DHT22;3186;54.062;9.962;2024-02-23T01:02:38;8.80;99.90
6307;DHT22;3186;54.062;9.962;2024-02-23T01:05:04;8.70;99.90
6307;DHT22;3186;54.062;9.962;2024-02-23T01:07:30;8.80;99.90
6307;DHT22;3186;54.062;9.962;2024-02-23T01:09:56;8.70;99.90
6307;DHT22;3186;54.062;9.962;2024-02-23T01:12:22;8.70;99.90
6307;DHT22;3186;54.062;9.962;2024-02-23T01:14:47;8.70;99.90
6307;DHT22;3186;54.062;9.962;2024-02-23T01:17:14;8.60;99.90
6307;DHT22;3186;54.062;9.962;2024-02-23T01:19:43;8.40;99.90
6307;DHT22;3186;54.062;9.962;2024-02-23T01:22:10;8.50;99.90
6307;DHT22;3186;54.062;9.962;2024-02-23T01:24:36;8.50;99.90
6307;DHT22;3186;54.062;9.962;2024-02-23T01:27:01;8.30;99.90
6307;DHT22;3186;54.062;9.962;2024-02-23T01:29:27;8.40;99.90
6307;DHT22;3186;54.062;9.962;2024-02-23T01:31:53;8.20;99.90
6307;DHT22;3186;54.062;9.962;2024-02-23T01:34:20;8.30;99.90
6307;DHT22;3186;54.062;9.962;2024-02-23T01:36:47;8.10;99.90
6307;DHT22;3186;54.062;9.962;2024-02-23T01:39:12;8.10;99.90
6307;DHT22;3186;54.062;9.962;2024-02-23T01:41:38;8.20;99.90
6307;DHT22;3186;54.062;9.962;2024-02-23T01:44:04;8.10;99.90
6307;DHT22;3186;54.062;9.962;2024-02-23T01:46:30;8.00;99.90
6307;DHT22;3186;54.062;9.962;2024-02-23T01:48:56;7.90;99.90
6307;DHT22;3186;54.062;9.962;2024-02-23T01:51:22;8.00;99.90
6307;DHT22;3186;54.062;9.962;2024-02-23T01:53:48;8.00;99.90
6307;DHT22;3186;54.062;9.962;2024-02-23T01:56:15;8.10;99.90
6307;DHT22;3186;54.062;9.962;2024-02-23T01:58:44;8.00;99.90
6307;DHT22;3186;54.062;9.962;2024-02-23T02:01:10;7.90;99.90
6307;DHT22;3186;54.062;9.962;2024-02-23T02:03:38;7.80;99.90
6307;DHT22;3186;54.062;9.962;2024-02-23T02:06:07;7.80;99.90
6307;DHT22;3186;54.062;9.962;2024-02-23T02:08:34;7.90;99.90
6307;DHT22;3186;54.062;9.962;2024-02-23T02:11:00;7.80;99.90
6307;DHT22;3186;54.062;9.962;2024-02-23T02:13:27;7.70;99.90
6307;DHT22;3186;54.062;9.962;2024-02-23T02:15:53;7.80;99.90
6307;DHT22;3186;54.062;9.962;2024-02-23T02:18:18;7.70;99.90
6307;DHT22;3186;54.062;9.962;2024-02-23T02:20:51;7.70;99.90
6307;DHT22;3186;54.062;9.962;2024-02-23T02:23:20;7.60;99.90
6307;DHT22;3186;54.062;9.962;2024-02-23T02:25:51;7.70;99.90
6307;DHT22;3186;54.062;9.962;2024-02-23T02:28:17;7.60;99.90
6307;DHT22;3186;54.062;9.962;2024-02-23T02:30:43;7.60;99.90
6307;DHT22;3186;54.062;9.962;2024-02-23T02:33:09;7.70;99.90
6307;DHT22;3186;54.062;9.962;2024-02-23T02:35:34;7.70;99.90
6307;DHT22;3186;54.062;9.962;2024-02-23T02:38:00;7.50;99.90
6307;DHT22;3186;54.062;9.962;2024-02-23T02:40:25;7.70;99.90
6307;DHT22;3186;54.062;9.962;2024-02-23T02:42:51;7.60;99.90
6307;DHT22;3186;54.062;9.962;2024-02-23T02:45:17;7.60;99.90
6307;DHT22;3186;54.062;9.962;2024-02-23T02:47:43;7.40;99.90
6307;DHT22;3186;54.062;9.962;2024-02-23T02:50:09;7.30;99.90
6307;DHT22;3186;54.062;9.962;2024-02-23T02:52:34;7.40;99.90
6307;DHT22;3186;54.062;9.962;2024-02-23T02:55:00;7.30;99.90
6307;DHT22;3186;54.062;9.962;2024-02-23T02:57:25;7.40;99.90
6307;DHT22;3186;54.062;9.962;2024-02-23T02:59:51;7.30;99.90
6307;DHT22;3186;54.062;9.962;2024-02-23T03:02:17;7.30;99.90
6307;DHT22;3186;54.062;9.962;2024-02-23T03:04:49;7.50;99.90
6307;DHT22;3186;54.062;9.962;2024-02-23T03:07:16;7.30;99.90
6307;DHT22;3186;54.062;9.962;2024-02-23T03:09:42;7.20;99.90
6307;DHT22;3186;54.062;9.962;2024-02-23T03:12:08;7.20;99.90
6307;DHT22;3186;54.062;9.962;2024-02-23T03:14:34;7.20;99.90
6307;DHT22;3186;54.062;9.962;2024-02-23T03:16:59;7.10;99.90
6307;DHT22;3186;54.062;9.962;2024-02-23T03:19:25;7.20;99.90
6307;DHT22;3186;54.062;9.962;2024-02-23T03:21:51;7.40;99.90
6307;DHT22;3186;54.062;9.962;2024-02-23T03:24:17;7.30;99.90
6307;DHT22;3186;54.062;9.962;2024-02-23T03:26:43;7.30;99.90
6307;DHT22;3186;54.062;9.962;2024-02-23T03:29:09;7.20;99.90
6307;DHT22;3186;54.062;9.962;2024-02-23T03:31:35;7.00;99.90
6307;DHT22;3186;54.062;9.962;2024-02-23T03:34:02;6.90;99.90
6307;DHT22;3186;54.062;9.962;2024-02-23T03:43:49;7.00;99.90
6307;DHT22;3186;54.062;9.962;2024-02-23T03:46:15;7.10;99.90
6307;DHT22;3186;54.062;9.962;2024-02-23T03:48:42;7.00;99.90
6307;DHT22;3186;54.062;9.962;2024-02-23T03:51:09;6.90;99.90
6307;DHT22;3186;54.062;9.962;2024-02-23T03:53:34;6.90;99.90
6307;DHT22;3186;54.062;9.962;2024-02-23T03:56:00;6.80;99.90
6307;DHT22;3186;54.062;9.962;2024-02-23T03:58:26;7.00;99.90
6307;DHT22;3186;54.062;9.962;2024-02-23T04:00:51;6.80;99.90
6307;DHT22;3186;54.062;9.962;2024-02-23T04:03:17;6.80;99.90
6307;DHT22;3186;54.062;9.962;2024-02-23T04:05:43;6.90;99.90
6307;DHT22;3186;54.062;9.962;2024-02-23T04:08:08;6.90;99.90
6307;DHT22;3186;54.062;9.962;2024-02-23T04:10:34;6.90;99.90
6307;DHT22;3186;54.062;9.962;2024-02-23T04:13:00;6.90;99.90
6307;DHT22;3186;54.062;9.962;2024-02-23T04:15:26;6.80;99.90
6307;DHT22;3186;54.062;9.962;2024-02-23T04:17:52;6.80;99.90
6307;DHT22;3186;54.062;9.962;2024-02-23T04:20:18;6.90;99.90
6307;DHT22;3186;54.062;9.962;2024-02-23T04:22:44;7.00;99.90
6307;DHT22;3186;54.062;9.962;2024-02-23T04:25:10;6.90;99.90
6307;DHT22;3186;54.062;9.962;2024-02-23T04:27:36;6.90;99.90
6307;DHT22;3186;54.062;9.962;2024-02-23T04:30:02;6.70;99.90
6307;DHT22;3186;54.062;9.962;2024-02-23T04:32:28;6.60;99.90
6307;DHT22;3186;54.062;9.962;2024-02-23T04:34:53;6.70;99.90
6307;DHT22;3186;54.062;9.962;2024-02-23T04:37:19;6.80;99.90
6307;DHT22;3186;54.062;9.962;2024-02-23T04:39:45;6.80;99.90
6307;DHT22;3186;54.062;9.962;2024-02-23T04:42:10;6.80;99.90
6307;DHT22;3186;54.062;9.962;2024-02-23T04:44:36;6.60;99.90
6307;DHT22;3186;54.062;9.962;2024-02-23T04:47:02;6.70;99.90
6307;DHT22;3186;54.062;9.962;2024-02-23T04:49:28;6.60;99.90
6307;DHT22;3186;54.062;9.962;2024-02-23T04:51:54;6.60;99.90
6307;DHT22;3186;54.062;9.962;2024-02-23T04:54:20;6.60;99.90
6307;DHT22;3186;54.062;9.962;2024-02-23T04:56:46;6.50;99.90
6307;DHT22;3186;54.062;9.962;2024-02-23T04:59:13;6.70;99.90
6307;DHT22;3186;54.062;9.962;2024-02-23T05:01:38;6.70;99.90
6307;DHT22;3186;54.062;9.962;2024-02-23T05:04:04;6.70;99.90
6307;DHT22;3186;54.062;9.962;2024-02-23T05:06:30;6.60;99.90
6307;DHT22;3186;54.062;9.962;2024-02-23T05:08:56;6.50;99.90
6307;DHT22;3186;54.062;9.962;2024-02-23T05:11:21;6.50;99.90
6307;DHT22;3186;54.062;9.962;2024-02-23T05:13:47;6.50;99.90
6307;DHT22;3186;54.062;9.962;2024-02-23T05:16:16;6.40;99.90
6307;DHT22;3186;54.062;9.962;2024-02-23T05:18:42;6.40;99.90
6307;DHT22;3186;54.062;9.962;2024-02-23T05:21:09;6.40;99.90
6307;DHT22;3186;54.062;9.962;2024-02-23T05:23:35;6.30;99.90
6307;DHT22;3186;54.062;9.962;2024-02-23T05:26:01;6.50;99.90
6307;DHT22;3186;54.062;9.962;2024-02-23T05:28:26;6.50;99.90
6307;DHT22;3186;54.062;9.962;2024-02-23T05:30:54;6.60;99.90
6307;DHT22;3186;54.062;9.962;2024-02-23T05:33:19;6.50;99.90
6307;DHT22;3186;54.062;9.962;2024-02-23T05:35:48;6.50;99.90
6307;DHT22;3186;54.062;9.962;2024-02-23T05:38:14;6.50;99.90
6307;DHT22;3186;54.062;9.962;2024-02-23T05:40:41;6.50;99.90
6307;DHT22;3186;54.062;9.962;2024-02-23T05:43:06;6.50;99.90
6307;DHT22;3186;54.062;9.962;2024-02-23T05:45:32;6.50;99.90
6307;DHT22;3186;54.062;9.962;2024-02-23T05:47:58;6.30;99.90
6307;DHT22;3186;54.062;9.962;2024-02-23T05:50:24;6.50;99.90
6307;DHT22;3186;54.062;9.962;2024-02-23T05:52:49;6.40;99.90
6307;DHT22;3186;54.062;9.962;2024-02-23T05:55:15;6.50;99.90
6307;DHT22;3186;54.062;9.962;2024-02-23T05:57:41;6.40;99.90
6307;DHT22;3186;54.062;9.962;2024-02-23T06:00:07;6.30;99.90
6307;DHT22;3186;54.062;9.962;2024-02-23T06:02:38;6.50;99.90
6307;DHT22;3186;54.062;9.962;2024-02-23T06:05:07;6.40;99.90
6307;DHT22;3186;54.062;9.962;2024-02-23T06:07:34;6.40;99.90
6307;DHT22;3186;54.062;9.962;2024-02-23T06:10:00;6.30;99.90
6307;DHT22;3186;54.062;9.962;2024-02-23T06:12:26;6.30;99.90
6307;DHT22;3186;54.062;9.962;2024-02-23T06:14:52;6.30;99.90
6307;DHT22;3186;54.062;9.962;2024-02-23T06:17:18;6.40;99.90
6307;DHT22;3186;54.062;9.962;2024-02-23T06:19:44;6.20;99.90
6307;DHT22;3186;54.062;9.962;2024-02-23T06:22:09;6.20;99.90
6307;DHT22;3186;54.062;9.962;2024-02-23T06:24:38;6.30;99.90
6307;DHT22;3186;54.062;9.962;2024-02-23T06:27:04;6.30;99.90
6307;DHT22;3186;54.062;9.962;2024-02-23T06:29:30;6.20;99.90
6307;DHT22;3186;54.062;9.962;2024-02-23T06:31:56;6.20;99.90
6307;DHT22;3186;54.062;9.962;2024-02-23T06:34:21;6.20;99.90
6307;DHT22;3186;54.062;9.962;2024-02-23T06:36:47;6.20;99.90
6307;DHT22;3186;54.062;9.962;2024-02-23T06:39:13;6.30;99.90
6307;DHT22;3186;54.062;9.962;2024-02-23T06:41:39;6.10;99.90
6307;DHT22;3186;54.062;9.962;2024-02-23T06:44:04;6.10;99.90
6307;DHT22;3186;54.062;9.962;2024-02-23T06:46:30;6.20;99.90
6307;DHT22;3186;54.062;9.962;2024-02-23T06:48:56;6.20;99.90
6307;DHT22;3186;54.062;9.962;2024-02-23T06:51:21;6.20;99.90
6307;DHT22;3186;54.062;9.962;2024-02-23T06:53:47;6.20;99.90
6307;DHT22;3186;54.062;9.962;2024-02-23T06:56:13;6.20;99.90
6307;DHT22;3186;54.062;9.962;2024-02-23T06:58:39;6.20;99.90
6307;DHT22;3186;54.062;9.962;2024-02-23T07:01:04;6.20;99.90
6307;DHT22;3186;54.062;9.962;2024-02-23T07:03:32;6.20;99.90
6307;DHT22;3186;54.062;9.962;2024-02-23T07:05:58;6.20;99.90
6307;DHT22;3186;54.062;9.962;2024-02-23T07:08:24;6.30;99.90
6307;DHT22;3186;54.062;9.962;2024-02-23T07:10:50;6.20;99.90
6307;DHT22;3186;54.062;9.962;2024-02-23T07:13:16;6.20;99.90
6307;DHT22;3186;54.062;9.962;2024-02-23T07:15:43;6.20;99.90
6307;DHT22;3186;54.062;9.962;2024-02-23T07:18:09;6.30;99.90
6307;DHT22;3186;54.062;9.962;2024-02-23T07:20:37;6.20;99.90
6307;DHT22;3186;54.062;9.962;2024-02-23T07:23:04;6.20;99.90
6307;DHT22;3186;54.062;9.962;2024-02-23T07:25:30;6.10;99.90
6307;DHT22;3186;54.062;9.962;2024-02-23T07:27:56;6.20;99.90
6307;DHT22;3186;54.062;9.962;2024-02-23T07:30:22;6.20;99.90
6307;DHT22;3186;54.062;9.962;2024-02-23T07:32:47;6.30;99.90
6307;DHT22;3186;54.062;9.962;2024-02-23T07:35:13;6.20;99.90
6307;DHT22;3186;54.062;9.962;2024-02-23T07:37:39;6.20;99.90
6307;DHT22;3186;54.062;9.962;2024-02-23T07:40:05;6.30;99.90
6307;DHT22;3186;54.062;9.962;2024-02-23T07:42:32;6.20;99.90
6307;DHT22;3186;54.062;9.962;2024-02-23T07:44:58;6.30;99.90
6307;DHT22;3186;54.062;9.962;2024-02-23T07:47:24;6.20;99.90
6307;DHT22;3186;54.062;9.962;2024-02-23T07:49:51;6.30;99.90
6307;DHT22;3186;54.062;9.962;2024-02-23T07:52:17;6.20;99.90
6307;DHT22;3186;54.062;9.962;2024-02-23T07:54:43;6.30;99.90
6307;DHT22;3186;54.062;9.962;2024-02-23T07:57:08;6.30;99.90
6307;DHT22;3186;54.062;9.962;2024-02-23T07:59:34;6.40;99.90
6307;DHT22;3186;54.062;9.962;2024-02-23T08:02:00;6.40;99.90
6307;DHT22;3186;54.062;9.962;2024-02-23T08:04:26;6.40;99.90
6307;DHT22;3186;54.062;9.962;2024-02-23T08:06:51;6.40;99.90
6307;DHT22;3186;54.062;9.962;2024-02-23T08:09:17;6.40;99.90
6307;DHT22;3186;54.062;9.962;2024-02-23T08:11:43;6.40;99.90
6307;DHT22;3186;54.062;9.962;2024-02-23T08:14:09;6.40;99.90
6307;DHT22;3186;54.062;9.962;2024-02-23T08:16:34;6.40;99.90
6307;DHT22;3186;54.062;9.962;2024-02-23T08:19:00;6.40;99.90
6307;DHT22;3186;54.062;9.962;2024-02-23T08:21:26;6.40;99.90
6307;DHT22;3186;54.062;9.962;2024-02-23T08:23:52;6.40;99.90
6307;DHT22;3186;54.062;9.962;2024-02-23T08:26:17;6.40;99.90
6307;DHT22;3186;54.062;9.962;2024-02-23T08:28:43;6.40;99.90
6307;DHT22;3186;54.062;9.962;2024-02-23T08:31:09;6.50;99.90
6307;DHT22;3186;54.062;9.962;2024-02-23T08:33:34;6.70;99.90
6307;DHT22;3186;54.062;9.962;2024-02-23T08:36:00;6.70;99.90
6307;DHT22;3186;54.062;9.962;2024-02-23T08:38:26;6.70;99.90
6307;DHT22;3186;54.062;9.962;2024-02-23T08:40:51;6.70;99.90
6307;DHT22;3186;54.062;9.962;2024-02-23T08:43:17;6.60;99.90
6307;DHT22;3186;54.062;9.962;2024-02-23T08:48:09;6.50;99.90
6307;DHT22;3186;54.062;9.962;2024-02-23T08:50:34;6.60;99.90
6307;DHT22;3186;54.062;9.962;2024-02-23T08:53:00;6.60;99.90
6307;DHT22;3186;54.062;9.962;2024-02-23T08:55:26;6.60;99.90
6307;DHT22;3186;54.062;9.962;2024-02-23T08:57:51;6.50;99.90
6307;DHT22;3186;54.062;9.962;2024-02-23T09:00:17;6.60;99.90
6307;DHT22;3186;54.062;9.962;2024-02-23T09:02:43;6.60;99.90
6307;DHT22;3186;54.062;9.962;2024-02-23T09:05:09;6.60;99.90
6307;DHT22;3186;54.062;9.962;2024-02-23T09:07:35;6.60;99.90
6307;DHT22;3186;54.062;9.962;2024-02-23T09:10:01;6.50;99.90
6307;DHT22;3186;54.062;9.962;2024-02-23T09:12:27;6.60;99.90
6307;DHT22;3186;54.062;9.962;2024-02-23T09:14:52;6.60;99.90
6307;DHT22;3186;54.062;9.962;2024-02-23T09:17:18;6.70;99.90
6307;DHT22;3186;54.062;9.962;2024-02-23T09:19:46;6.70;99.90
6307;DHT22;3186;54.062;9.962;2024-02-23T09:22:11;6.70;99.90
6307;DHT22;3186;54.062;9.962;2024-02-23T09:24:40;6.70;99.90
6307;DHT22;3186;54.062;9.962;2024-02-23T09:27:06;6.80;99.90
6307;DHT22;3186;54.062;9.962;2024-02-23T09:29:32;6.80;99.90
6307;DHT22;3186;54.062;9.962;2024-02-23T09:31:58;6.80;99.90
6307;DHT22;3186;54.062;9.962;2024-02-23T09:34:24;6.90;99.90
6307;DHT22;3186;54.062;9.962;2024-02-23T09:36:50;6.80;99.90
6307;DHT22;3186;54.062;9.962;2024-02-23T09:39:16;6.90;99.90
6307;DHT22;3186;54.062;9.962;2024-02-23T09:41:42;6.90;99.90
6307;DHT22;3186;54.062;9.962;2024-02-23T09:44:09;6.90;99.90
6307;DHT22;3186;54.062;9.962;2024-02-23T09:46:37;6.90;99.90
6307;DHT22;3186;54.062;9.962;2024-02-23T09:49:03;6.90;99.90
6307;DHT22;3186;54.062;9.962;2024-02-23T09:51:32;7.00;99.90
6307;DHT22;3186;54.062;9.962;2024-02-23T09:53:58;7.10;99.90
6307;DHT22;3186;54.062;9.962;2024-02-23T09:56:27;7.10;99.90
6307;DHT22;3186;54.062;9.962;2024-02-23T09:58:56;7.00;99.90
6307;DHT22;3186;54.062;9.962;2024-02-23T10:01:28;7.10;99.90
6307;DHT22;3186;54.062;9.962;2024-02-23T10:03:57;7.10;99.90
6307;DHT22;3186;54.062;9.962;2024-02-23T10:06:24;7.10;99.90
6307;DHT22;3186;54.062;9.962;2024-02-23T10:08:50;7.20;99.90
6307;DHT22;3186;54.062;9.962;2024-02-23T10:11:23;7.20;99.90
6307;DHT22;3186;54.062;9.962;2024-02-23T10:13:49;7.20;99.90
6307;DHT22;3186;54.062;9.962;2024-02-23T10:16:16;7.20;99.90
6307;DHT22;3186;54.062;9.962;2024-02-23T10:18:42;7.20;99.90
6307;DHT22;3186;54.062;9.962;2024-02-23T10:21:08;7.20;99.90
6307;DHT22;3186;54.062;9.962;2024-02-23T10:23:34;7.20;99.90
6307;DHT22;3186;54.062;9.962;2024-02-23T10:25:59;7.30;99.90
6307;DHT22;3186;54.062;9.962;2024-02-23T10:28:25;7.30;99.90
6307;DHT22;3186;54.062;9.962;2024-02-23T10:30:50;7.30;99.90
6307;DHT22;3186;54.062;9.962;2024-02-23T10:33:22;7.40;99.90
6307;DHT22;3186;54.062;9.962;2024-02-23T10:35:52;7.40;99.90
6307;DHT22;3186;54.062;9.962;2024-02-23T10:38:21;7.50;99.90
6307;DHT22;3186;54.062;9.962;2024-02-23T10:40:48;7.40;99.90
6307;DHT22;3186;54.062;9.962;2024-02-23T10:43:19;7.40;99.90
6307;DHT22;3186;54.062;9.962;2024-02-23T10:45:46;7.50;99.90
6307;DHT22;3186;54.062;9.962;2024-02-23T10:48:13;7.40;99.90
6307;DHT22;3186;54.062;9.962;2024-02-23T10:50:40;7.50;99.90
6307;DHT22;3186;54.062;9.962;2024-02-23T10:53:10;7.40;99.90
6307;DHT22;3186;54.062;9.962;2024-02-23T10:55:37;7.60;99.90
6307;DHT22;3186;54.062;9.962;2024-02-23T10:58:06;7.60;99.90
6307;DHT22;3186;54.062;9.962;2024-02-23T11:00:34;7.60;99.00
6307;DHT22;3186;54.062;9.962;2024-02-23T11:03:00;7.70;99.90
6307;DHT22;3186;54.062;9.962;2024-02-23T11:05:27;7.80;93.00
6307;DHT22;3186;54.062;9.962;2024-02-23T11:07:56;7.90;99.10
6307;DHT22;3186;54.062;9.962;2024-02-23T11:10:22;7.80;96.20
6307;DHT22;3186;54.062;9.962;2024-02-23T11:13:07;7.90;99.90
6307;DHT22;3186;54.062;9.962;2024-02-23T11:15:33;7.80;96.10
6307;DHT22;3186;54.062;9.962;2024-02-23T11:18:27;7.90;96.50
6307;DHT22;3186;54.062;9.962;2024-02-23T11:20:56;7.90;97.50
6307;DHT22;3186;54.062;9.962;2024-02-23T11:23:24;7.90;96.10
6307;DHT22;3186;54.062;9.962;2024-02-23T11:26:05;8.00;94.50
6307;DHT22;3186;54.062;9.962;2024-02-23T11:28:32;8.00;97.00
6307;DHT22;3186;54.062;9.962;2024-02-23T11:30:57;8.00;95.20
6307;DHT22;3186;54.062;9.962;2024-02-23T11:33:28;7.90;89.60
6307;DHT22;3186;54.062;9.962;2024-02-23T11:36:07;8.00;97.20
6307;DHT22;3186;54.062;9.962;2024-02-23T11:38:34;8.20;91.60
6307;DHT22;3186;54.062;9.962;2024-02-23T11:41:00;8.10;93.40
6307;DHT22;3186;54.062;9.962;2024-02-23T11:43:27;8.00;99.90
6307;DHT22;3186;54.062;9.962;2024-02-23T11:45:53;8.10;96.30
6307;DHT22;3186;54.062;9.962;2024-02-23T11:48:19;8.10;98.80
6307;DHT22;3186;54.062;9.962;2024-02-23T11:50:45;8.20;98.80
6307;DHT22;3186;54.062;9.962;2024-02-23T11:53:10;8.20;96.60
6307;DHT22;3186;54.062;9.962;2024-02-23T11:55:36;8.00;99.90
6307;DHT22;3186;54.062;9.962;2024-02-23T11:58:02;7.90;96.30
6307;DHT22;3186;54.062;9.962;2024-02-23T12:00:28;8.00;83.30
6307;DHT22;3186;54.062;9.962;2024-02-23T12:02:55;8.10;96.30
6307;DHT22;3186;54.062;9.962;2024-02-23T12:05:22;8.30;95.60
6307;DHT22;3186;54.062;9.962;2024-02-23T12:07:47;8.30;96.70
6307;DHT22;3186;54.062;9.962;2024-02-23T12:10:13;8.20;93.40
6307;DHT22;3186;54.062;9.962;2024-02-23T12:12:39;8.30;94.80
6307;DHT22;3186;54.062;9.962;2024-02-23T12:15:06;8.40;95.20
6307;DHT22;3186;54.062;9.962;2024-02-23T12:17:31;8.50;87.30
6307;DHT22;3186;54.062;9.962;2024-02-23T12:20:00;8.40;93.30
6307;DHT22;3186;54.062;9.962;2024-02-23T12:22:26;8.40;87.00
6307;DHT22;3186;54.062;9.962;2024-02-23T12:24:52;8.40;90.10
6307;DHT22;3186;54.062;9.962;2024-02-23T12:27:18;8.30;83.70
6307;DHT22;3186;54.062;9.962;2024-02-23T12:29:56;8.40;81.10
6307;DHT22;3186;54.062;9.962;2024-02-23T12:32:22;8.30;80.90
6307;DHT22;3186;54.062;9.962;2024-02-23T12:34:48;8.40;92.90
6307;DHT22;3186;54.062;9.962;2024-02-23T12:37:17;8.40;95.30
6307;DHT22;3186;54.062;9.962;2024-02-23T12:39:44;8.40;91.80
6307;DHT22;3186;54.062;9.962;2024-02-23T12:42:09;8.30;82.20
6307;DHT22;3186;54.062;9.962;2024-02-23T12:44:35;8.40;85.40
6307;DHT22;3186;54.062;9.962;2024-02-23T12:47:01;8.40;90.50
6307;DHT22;3186;54.062;9.962;2024-02-23T12:49:27;8.40;92.00
6307;DHT22;3186;54.062;9.962;2024-02-23T12:51:52;8.30;73.60
6307;DHT22;3186;54.062;9.962;2024-02-23T12:54:18;8.40;85.00
6307;DHT22;3186;54.062;9.962;2024-02-23T12:56:44;8.50;75.30
6307;DHT22;3186;54.062;9.962;2024-02-23T12:59:09;8.50;82.10
6307;DHT22;3186;54.062;9.962;2024-02-23T13:01:38;8.60;85.50
6307;DHT22;3186;54.062;9.962;2024-02-23T13:04:05;8.60;91.90
6307;DHT22;3186;54.062;9.962;2024-02-23T13:06:38;8.60;82.80
6307;DHT22;3186;54.062;9.962;2024-02-23T13:09:04;8.60;82.50
6307;DHT22;3186;54.062;9.962;2024-02-23T13:11:31;8.50;67.50
6307;DHT22;3186;54.062;9.962;2024-02-23T13:13:57;8.60;76.50
6307;DHT22;3186;54.062;9.962;2024-02-23T13:16:22;8.70;71.30
6307;DHT22;3186;54.062;9.962;2024-02-23T13:18:48;8.60;55.10
6307;DHT22;3186;54.062;9.962;2024-02-23T13:21:14;8.50;53.70
6307;DHT22;3186;54.062;9.962;2024-02-23T13:23:40;8.40;58.80
6307;DHT22;3186;54.062;9.962;2024-02-23T13:26:07;8.50;62.40
6307;DHT22;3186;54.062;9.962;2024-02-23T13:28:33;8.50;53.60
6307;DHT22;3186;54.062;9.962;2024-02-23T13:30:58;8.60;54.80
6307;DHT22;3186;54.062;9.962;2024-02-23T13:33:24;8.70;73.20
6307;DHT22;3186;54.062;9.962;2024-02-23T13:35:51;8.60;65.80
6307;DHT22;3186;54.062;9.962;2024-02-23T13:38:16;8.60;59.90
6307;DHT22;3186;54.062;9.962;2024-02-23T13:40:42;8.70;58.90
6307;DHT22;3186;54.062;9.962;2024-02-23T13:43:07;8.60;72.10
6307;DHT22;3186;54.062;9.962;2024-02-23T13:45:50;8.60;70.80
6307;DHT22;3186;54.062;9.962;2024-02-23T13:48:17;8.60;63.90
6307;DHT22;3186;54.062;9.962;2024-02-23T13:50:44;8.60;72.10
6307;DHT22;3186;54.062;9.962;2024-02-23T13:53:11;8.60;80.90
6307;DHT22;3186;54.062;9.962;2024-02-23T13:55:38;8.60;62.70
6307;DHT22;3186;54.062;9.962;2024-02-23T13:58:04;8.50;55.10
6307;DHT22;3186;54.062;9.962;2024-02-23T14:00:29;8.50;86.10
6307;DHT22;3186;54.062;9.962;2024-02-23T14:02:55;8.50;72.70
6307;DHT22;3186;54.062;9.962;2024-02-23T14:05:21;8.50;79.00
6307;DHT22;3186;54.062;9.962;2024-02-23T14:07:47;8.60;68.20
6307;DHT22;3186;54.062;9.962;2024-02-23T14:10:13;8.60;70.60
6307;DHT22;3186;54.062;9.962;2024-02-23T14:12:40;8.50;59.20
6307;DHT22;3186;54.062;9.962;2024-02-23T14:15:06;8.60;56.80
6307;DHT22;3186;54.062;9.962;2024-02-23T14:17:32;8.50;54.00
6307;DHT22;3186;54.062;9.962;2024-02-23T14:19:58;8.50;50.80
6307;DHT22;3186;54.062;9.962;2024-02-23T14:22:24;8.60;55.10
6307;DHT22;3186;54.062;9.962;2024-02-23T14:24:49;8.50;60.50
6307;DHT22;3186;54.062;9.962;2024-02-23T14:27:15;8.50;62.90
6307;DHT22;3186;54.062;9.962;2024-02-23T14:29:40;8.60;51.80
6307;DHT22;3186;54.062;9.962;2024-02-23T14:32:06;8.70;69.20
6307;DHT22;3186;54.062;9.962;2024-02-23T14:34:32;8.70;57.80
6307;DHT22;3186;54.062;9.962;2024-02-23T14:36:59;8.70;50.70
6307;DHT22;3186;54.062;9.962;2024-02-23T14:39:25;8.70;61.70
6307;DHT22;3186;54.062;9.962;2024-02-23T14:41:50;8.60;49.40
6307;DHT22;3186;54.062;9.962;2024-02-23T14:44:16;8.50;42.00
6307;DHT22;3186;54.062;9.962;2024-02-23T14:46:42;8.60;50.70
6307;DHT22;3186;54.062;9.962;2024-02-23T14:49:07;8.70;49.20
6307;DHT22;3186;54.062;9.962;2024-02-23T14:51:33;8.70;46.00
6307;DHT22;3186;54.062;9.962;2024-02-23T14:54:00;8.70;60.40
6307;DHT22;3186;54.062;9.962;2024-02-23T14:56:27;8.60;49.60
6307;DHT22;3186;54.062;9.962;2024-02-23T14:58:53;8.60;39.80
6307;DHT22;3186;54.062;9.962;2024-02-23T15:01:19;8.60;54.10
6307;DHT22;3186;54.062;9.962;2024-02-23T15:03:44;8.50;61.40
6307;DHT22;3186;54.062;9.962;2024-02-23T15:06:10;8.60;64.60
6307;DHT22;3186;54.062;9.962;2024-02-23T15:08:36;8.60;46.20
6307;DHT22;3186;54.062;9.962;2024-02-23T15:11:02;8.70;66.20
6307;DHT22;3186;54.062;9.962;2024-02-23T15:13:28;8.70;60.40
6307;DHT22;3186;54.062;9.962;2024-02-23T15:15:53;8.60;39.00
6307;DHT22;3186;54.062;9.962;2024-02-23T15:18:19;8.50;56.30
6307;DHT22;3186;54.062;9.962;2024-02-23T15:20:45;8.50;57.10
6307;DHT22;3186;54.062;9.962;2024-02-23T15:23:12;8.50;49.00
6307;DHT22;3186;54.062;9.962;2024-02-23T15:25:38;8.60;57.10
6307;DHT22;3186;54.062;9.962;2024-02-23T15:28:04;8.60;47.80
6307;DHT22;3186;54.062;9.962;2024-02-23T15:30:30;8.50;48.30
6307;DHT22;3186;54.062;9.962;2024-02-23T15:32:55;8.50;48.40
6307;DHT22;3186;54.062;9.962;2024-02-23T15:35:21;8.50;47.50
6307;DHT22;3186;54.062;9.962;2024-02-23T15:37:47;10.00;41.70
6307;DHT22;3186;54.062;9.962;2024-02-23T15:40:12;8.40;56.00
6307;DHT22;3186;54.062;9.962;2024-02-23T15:42:38;8.40;61.60
6307;DHT22;3186;54.062;9.962;2024-02-23T15:45:05;8.40;49.40
6307;DHT22;3186;54.062;9.962;2024-02-23T15:47:32;8.40;56.00
6307;DHT22;3186;54.062;9.962;2024-02-23T15:49:59;8.50;76.20
6307;DHT22;3186;54.062;9.962;2024-02-23T15:52:26;8.50;64.20
6307;DHT22;3186;54.062;9.962;2024-02-23T15:54:52;8.50;68.20
6307;DHT22;3186;54.062;9.962;2024-02-23T15:57:18;8.40;45.70
6307;DHT22;3186;54.062;9.962;2024-02-23T15:59:46;8.40;48.40
6307;DHT22;3186;54.062;9.962;2024-02-23T16:02:11;8.40;46.90
6307;DHT22;3186;54.062;9.962;2024-02-23T16:04:37;8.40;54.40
6307;DHT22;3186;54.062;9.962;2024-02-23T16:07:03;8.40;64.50
6307;DHT22;3186;54.062;9.962;2024-02-23T16:09:32;8.40;54.60
6307;DHT22;3186;54.062;9.962;2024-02-23T16:11:58;8.40;50.30
6307;DHT22;3186;54.062;9.962;2024-02-23T16:14:24;8.40;75.70
6307;DHT22;3186;54.062;9.962;2024-02-23T16:16:49;8.50;66.30
6307;DHT22;3186;54.062;9.962;2024-02-23T16:19:16;8.50;76.00
6307;DHT22;3186;54.062;9.962;2024-02-23T16:21:41;8.40;66.00